• Join FlightAware (Why Join?)
  • Login
  • US Flag 
08:31PM EDT


 

Airport Tracker/Info


-or-


 

Live Flight TrackerFlight Track Log ✈ VH-AKF ✈ 19-Jul-2013 ✈ YPJT / JAD - YNTM

Flight Track Log - Related Links

Times and Time Zones

All times are in EDT time to prevent confusion due to time zone crossing. See the VH-AKF flight status page for this flight to view local times or setup timezone preferences in your user account.

Time Position Orientation Groundspeed Altitude Reporting Facility
EDT Latitude Longitude Course Direction KTS MPH feet Rate Location/Type
03:29AM -32.1429 116.1039 102° East 100 115 2,500  Level Aus ATC (RADAR)
03:30AM -32.1461 116.1213 102° East 104 120 2,500  Level Aus ATC (RADAR)
03:30AM -32.1482 116.1302 105° East 107 123 2,500  Level Aus ATC (RADAR)
03:32AM -32.1555 116.1628 105° East 108 124 2,500  Level Aus ATC (RADAR)
03:33AM -32.1540 116.1811 85° East 111 128 2,500  Level Aus ATC (RADAR)
03:33AM -32.1503 116.1958 73° East 109 125 2,500 60 Level Aus ATC (RADAR)
03:34AM -32.1467 116.2074 70° East 110 127 2,600 360 Climbing Aus ATC (RADAR)
03:35AM -32.1426 116.2192 68° East 93 107 3,000 420 Climbing Aus ATC (RADAR)
03:35AM -32.1388 116.2373 76° East 89 102 3,300 300 Climbing Aus ATC (RADAR)
03:37AM -32.1285 116.2725 71° East 110 127 3,700 300 Climbing Aus ATC (RADAR)
03:41AM -32.0004 116.3821 180° South -900 Descending Aus ATC (Calculated)
03:42AM -32.0004 116.3821 270° West  Level Aus ATC (Calculated)
03:43AM -32.0008 116.3238 270° West  Level FlightAware Approximate
03:44AM -31.9624 116.3606 39° Northeast  Level Estimated
03:45AM -31.9130 116.3595 359° North  Level FlightAware Approximate
03:46AM -31.8635 116.3583 359° North  Level FlightAware Approximate
03:47AM -31.9130 116.3594 179° South  Level FlightAware Approximate
03:48AM -31.8773 116.3997 49° Northeast  Level Estimated
03:48AM -31.7194 116.6091 230° Southwest  Level Aus ATC (Calculated)
03:49AM -31.8417 116.4401 44° Northeast  Level FlightAware Approximate
03:50AM -31.6780 116.6425 34° Northeast  Level FlightAware Approximate
03:51AM -31.6372 116.6754 34° Northeast  Level FlightAware Approximate
03:52AM -31.6246 116.6833 34° Northeast  Level Estimated
03:53AM -31.6246 116.6833 135° Southeast  Level Estimated
03:54AM -31.6246 116.6833 135° Southeast  Level Estimated
03:55AM -31.6257 116.6845 49° Northeast  Level FlightAware Approximate
03:56AM -31.6246 116.6833 49° Northeast  Level Estimated